createdAt,value
2022-12-03T00:02:18.386Z,8.51
2022-12-03T00:04:45.203Z,8.50
2022-12-03T00:07:11.922Z,8.51
2022-12-03T00:09:38.714Z,8.47
2022-12-03T00:12:05.601Z,8.49
2022-12-03T00:14:32.377Z,8.47
2022-12-03T00:16:59.195Z,8.34
2022-12-03T00:19:25.886Z,8.40
2022-12-03T00:21:52.602Z,8.46
2022-12-03T00:24:19.373Z,8.41
2022-12-03T00:26:46.071Z,8.46
2022-12-03T00:29:12.791Z,8.48
2022-12-03T00:31:39.586Z,8.49
2022-12-03T00:34:06.325Z,8.50
2022-12-03T00:36:33.011Z,8.47
2022-12-03T00:38:59.765Z,8.41
2022-12-03T00:41:26.451Z,8.42
2022-12-03T00:43:57.472Z,8.48
2022-12-03T00:46:25.648Z,8.46
2022-12-03T00:48:52.827Z,8.33
2022-12-03T00:51:19.659Z,8.40
2022-12-03T00:53:46.725Z,8.34
2022-12-03T00:56:13.456Z,8.37
2022-12-03T00:58:40.239Z,8.30
2022-12-03T01:01:07.057Z,8.24
2022-12-03T01:03:33.943Z,8.28
2022-12-03T01:06:00.696Z,8.27
2022-12-03T01:08:27.483Z,8.35
2022-12-03T01:10:54.186Z,8.34
2022-12-03T01:13:21.023Z,8.28
2022-12-03T01:15:47.979Z,8.26
2022-12-03T01:18:15.524Z,8.21
2022-12-03T01:20:42.315Z,8.24
2022-12-03T01:23:09.090Z,8.20
2022-12-03T01:25:35.810Z,8.24
2022-12-03T01:28:02.600Z,8.20
2022-12-03T01:30:29.430Z,8.13
2022-12-03T01:32:58.780Z,8.16
2022-12-03T01:35:25.474Z,8.22
2022-12-03T01:37:52.326Z,8.23
2022-12-03T01:40:21.255Z,8.19
2022-12-03T01:42:48.093Z,8.17
2022-12-03T01:45:22.795Z,8.19
2022-12-03T01:47:49.676Z,8.20
2022-12-03T01:50:42.883Z,8.15
2022-12-03T01:53:14.532Z,8.13
2022-12-03T01:55:48.460Z,8.22
2022-12-03T01:58:16.502Z,8.18
2022-12-03T02:00:43.334Z,8.10
2022-12-03T02:03:19.414Z,8.10
2022-12-03T02:05:46.306Z,8.08
2022-12-03T02:08:34.105Z,8.02
2022-12-03T02:11:35.429Z,7.99
2022-12-03T02:14:12.493Z,7.97
2022-12-03T02:16:41.346Z,7.87
2022-12-03T02:19:26.879Z,7.82
2022-12-03T02:22:35.565Z,7.86
2022-12-03T02:25:02.197Z,7.86
2022-12-03T02:27:29.349Z,7.81
2022-12-03T02:29:56.816Z,7.84
2022-12-03T02:32:23.696Z,7.86
2022-12-03T02:34:52.004Z,7.87
2022-12-03T02:37:37.804Z,7.77
2022-12-03T02:40:09.273Z,7.76
2022-12-03T02:42:36.297Z,7.76
2022-12-03T02:45:34.630Z,7.66
2022-12-03T02:48:15.557Z,7.68
2022-12-03T02:50:46.686Z,7.58
2022-12-03T02:53:17.837Z,7.67
2022-12-03T02:55:45.511Z,7.64
2022-12-03T02:58:12.884Z,7.64
2022-12-03T03:00:40.207Z,7.54
2022-12-03T03:03:08.430Z,7.53
2022-12-03T03:05:37.486Z,7.56
2022-12-03T03:08:05.130Z,7.60
2022-12-03T03:10:33.747Z,7.56
2022-12-03T03:13:03.608Z,7.54
2022-12-03T03:15:30.452Z,7.57
2022-12-03T03:17:57.179Z,7.63
2022-12-03T03:20:24.182Z,7.64
2022-12-03T03:22:50.874Z,7.56
2022-12-03T03:25:21.253Z,7.67
2022-12-03T03:27:48.127Z,7.44
2022-12-03T03:30:15.087Z,7.64
2022-12-03T03:32:42.747Z,7.63
2022-12-03T03:35:12.094Z,7.68
2022-12-03T03:37:39.292Z,7.74
2022-12-03T03:40:07.102Z,7.77
2022-12-03T03:42:34.417Z,7.79
2022-12-03T03:45:01.329Z,7.92
2022-12-03T03:47:28.086Z,7.82
2022-12-03T03:49:55.005Z,7.83
2022-12-03T03:52:22.346Z,7.91
2022-12-03T03:54:49.460Z,7.82
2022-12-03T03:57:16.675Z,7.87
2022-12-03T03:59:43.508Z,7.93
2022-12-03T04:02:21.657Z,7.94
2022-12-03T04:04:48.949Z,7.86
2022-12-03T04:07:16.629Z,8.00
2022-12-03T04:09:43.967Z,7.95
2022-12-03T04:12:31.726Z,7.97
2022-12-03T04:14:59.252Z,7.94
2022-12-03T04:17:26.834Z,7.86
2022-12-03T04:19:53.682Z,7.92
2022-12-03T04:22:38.889Z,7.93
2022-12-03T04:25:25.048Z,7.83
2022-12-03T04:28:10.760Z,7.84
2022-12-03T04:30:38.745Z,7.81
2022-12-03T04:33:24.104Z,7.82
2022-12-03T04:35:50.891Z,7.76
2022-12-03T04:38:17.710Z,7.73
2022-12-03T04:41:04.573Z,7.60
2022-12-03T04:43:33.341Z,7.70
2022-12-03T04:46:01.229Z,7.64
2022-12-03T04:48:28.160Z,7.70
2022-12-03T04:50:54.844Z,7.70
2022-12-03T04:53:21.555Z,7.72
2022-12-03T04:55:48.282Z,7.70
2022-12-03T04:58:15.129Z,7.59
2022-12-03T05:00:41.980Z,7.55
2022-12-03T05:03:08.733Z,7.58
2022-12-03T05:05:35.449Z,7.63
2022-12-03T05:08:02.400Z,7.58
2022-12-03T05:10:29.151Z,7.72
2022-12-03T05:12:55.917Z,7.72
2022-12-03T05:15:22.902Z,7.70
2022-12-03T05:17:49.635Z,7.62
2022-12-03T05:20:34.932Z,7.46
2022-12-03T05:23:01.772Z,7.43
2022-12-03T05:25:28.496Z,7.51
2022-12-03T05:27:55.295Z,7.43
2022-12-03T05:30:22.811Z,7.50
2022-12-03T05:32:50.117Z,7.43
2022-12-03T05:35:17.624Z,7.49
2022-12-03T05:37:44.454Z,7.25
2022-12-03T05:40:12.109Z,7.43
2022-12-03T05:42:54.367Z,7.41
2022-12-03T05:45:21.998Z,7.40
2022-12-03T05:47:48.897Z,7.38
2022-12-03T05:50:16.008Z,7.46
2022-12-03T05:52:42.903Z,7.50
2022-12-03T05:55:10.973Z,7.46
2022-12-03T05:57:38.150Z,7.41
2022-12-03T06:00:07.398Z,7.34
2022-12-03T06:02:34.379Z,7.25
2022-12-03T06:05:01.275Z,7.12
2022-12-03T06:07:28.098Z,7.08
2022-12-03T06:09:54.865Z,6.99
2022-12-03T06:12:21.663Z,6.89
2022-12-03T06:14:48.393Z,6.96
2022-12-03T06:17:15.135Z,6.97
2022-12-03T06:19:41.895Z,6.94
2022-12-03T06:22:08.574Z,6.85
2022-12-03T06:24:35.268Z,6.81
2022-12-03T06:27:02.076Z,6.82
2022-12-03T06:29:28.811Z,6.76
2022-12-03T06:31:55.543Z,6.73
2022-12-03T06:34:22.387Z,6.67
2022-12-03T06:36:50.327Z,6.62
2022-12-03T06:39:17.769Z,6.66
2022-12-03T06:41:44.737Z,6.66
2022-12-03T06:44:11.546Z,6.68
2022-12-03T06:46:38.268Z,6.72
2022-12-03T06:49:05.170Z,6.73
2022-12-03T06:51:31.899Z,6.75
2022-12-03T06:53:58.609Z,6.58
2022-12-03T06:56:28.455Z,6.73
2022-12-03T06:58:59.739Z,6.70
2022-12-03T07:01:26.766Z,6.69
2022-12-03T07:03:53.546Z,6.60
2022-12-03T07:06:20.278Z,6.75
2022-12-03T07:08:47.076Z,6.63
2022-12-03T07:11:32.150Z,6.72
2022-12-03T07:14:05.175Z,6.69
2022-12-03T07:16:33.493Z,6.59
2022-12-03T07:19:00.282Z,6.59
2022-12-03T07:21:27.071Z,6.57
2022-12-03T07:23:53.754Z,6.34
2022-12-03T07:26:20.875Z,6.54
2022-12-03T07:28:48.513Z,6.49
2022-12-03T07:31:15.629Z,6.39
2022-12-03T07:33:42.910Z,6.35
2022-12-03T07:36:10.683Z,6.28
2022-12-03T07:38:37.721Z,6.15
2022-12-03T07:41:04.454Z,6.03
2022-12-03T07:43:31.353Z,5.96
2022-12-03T07:45:58.140Z,6.07
2022-12-03T07:48:24.884Z,6.05
2022-12-03T07:50:51.927Z,6.12
2022-12-03T07:53:18.776Z,6.25
2022-12-03T07:55:45.749Z,6.38
2022-12-03T07:58:12.571Z,6.51
2022-12-03T08:00:39.333Z,6.56
2022-12-03T08:03:06.039Z,6.60
2022-12-03T08:05:32.899Z,6.71
2022-12-03T08:08:00.699Z,6.83
2022-12-03T08:10:27.503Z,6.99
2022-12-03T08:12:56.579Z,7.18
2022-12-03T08:15:24.664Z,7.30
2022-12-03T08:18:00.767Z,7.45
2022-12-03T08:20:31.441Z,7.68
2022-12-03T08:22:58.175Z,7.94
2022-12-03T08:25:29.754Z,8.12
2022-12-03T08:28:23.732Z,8.10
2022-12-03T08:31:02.801Z,8.16
2022-12-03T08:33:36.350Z,8.21
2022-12-03T08:36:29.500Z,8.13
2022-12-03T08:39:01.051Z,8.25
2022-12-03T08:41:48.856Z,8.41
2022-12-03T08:44:24.017Z,8.91
2022-12-03T08:47:19.980Z,9.08
2022-12-03T08:50:06.974Z,9.52
2022-12-03T08:52:34.901Z,10.00
2022-12-03T08:55:30.994Z,10.76
2022-12-03T08:57:58.954Z,11.42
2022-12-03T09:00:26.059Z,11.95
2022-12-03T09:02:55.182Z,12.64
2022-12-03T09:05:23.736Z,12.80
2022-12-03T09:07:50.585Z,12.83
2022-12-03T09:10:17.605Z,13.22
2022-12-03T09:12:44.498Z,13.55
2022-12-03T09:15:11.503Z,13.88
2022-12-03T09:17:38.356Z,14.49
2022-12-03T09:20:06.511Z,15.36
2022-12-03T09:22:33.267Z,15.95
2022-12-03T09:25:00.031Z,16.40
2022-12-03T09:27:26.832Z,15.74
2022-12-03T09:29:53.556Z,15.52
2022-12-03T09:32:20.440Z,15.43
2022-12-03T09:34:47.464Z,15.96
2022-12-03T09:37:14.171Z,15.75
2022-12-03T09:39:40.992Z,15.77
2022-12-03T09:42:08.388Z,15.98
2022-12-03T09:44:35.968Z,15.67
2022-12-03T09:47:04.865Z,15.78
2022-12-03T09:49:33.477Z,15.74
2022-12-03T09:52:03.128Z,15.84
2022-12-03T09:54:32.336Z,15.66
2022-12-03T09:57:02.633Z,15.31
2022-12-03T09:59:34.797Z,14.82
2022-12-03T10:02:02.971Z,14.57
2022-12-03T10:04:31.360Z,14.57
2022-12-03T10:06:59.158Z,14.87
2022-12-03T10:09:28.319Z,15.38
2022-12-03T10:11:57.449Z,15.69
2022-12-03T10:14:24.695Z,15.73
2022-12-03T10:16:51.995Z,15.38
2022-12-03T10:19:29.526Z,15.65
2022-12-03T10:22:17.336Z,15.67
2022-12-03T10:24:45.163Z,16.22
2022-12-03T10:27:20.837Z,16.17
2022-12-03T10:29:56.809Z,16.38
2022-12-03T10:32:48.433Z,16.58
2022-12-03T10:35:35.960Z,16.77
2022-12-03T10:38:05.755Z,16.25
2022-12-03T10:40:37.810Z,15.96
2022-12-03T10:43:33.694Z,15.99
2022-12-03T10:46:04.424Z,16.55
2022-12-03T10:48:31.612Z,17.29
2022-12-03T10:51:07.175Z,17.87
2022-12-03T10:53:35.842Z,18.55
2022-12-03T10:56:06.039Z,19.00
2022-12-03T10:58:37.649Z,19.45
2022-12-03T11:01:15.068Z,19.71
2022-12-03T11:03:42.025Z,19.78
2022-12-03T11:06:18.702Z,19.09
2022-12-03T11:08:54.743Z,19.10
2022-12-03T11:11:29.028Z,19.65
2022-12-03T11:14:01.112Z,20.80
2022-12-03T11:16:39.672Z,21.14
2022-12-03T11:19:12.620Z,21.61
2022-12-03T11:22:18.342Z,21.75
2022-12-03T11:24:45.096Z,21.25
2022-12-03T11:30:11.074Z,21.53
2022-12-03T11:32:43.552Z,21.40
2022-12-03T11:35:26.735Z,21.14
2022-12-03T11:37:53.613Z,20.56
2022-12-03T11:40:21.280Z,20.97
2022-12-03T11:42:49.245Z,22.45
2022-12-03T11:45:28.712Z,23.63
2022-12-03T11:47:58.491Z,23.93
2022-12-03T11:50:57.390Z,24.33
2022-12-03T11:53:26.563Z,23.61
2022-12-03T11:56:06.675Z,23.95
2022-12-03T11:58:35.786Z,24.94
2022-12-03T12:01:05.479Z,25.68
2022-12-03T12:03:35.242Z,25.36
2022-12-03T12:06:14.319Z,24.45
2022-12-03T12:08:55.249Z,24.22
2022-12-03T12:11:36.662Z,24.04
2022-12-03T12:14:05.391Z,24.53
2022-12-03T12:16:55.484Z,24.81
2022-12-03T12:19:31.577Z,24.93
2022-12-03T12:22:31.621Z,25.15
2022-12-03T12:25:03.531Z,24.92
2022-12-03T12:27:39.517Z,24.11
2022-12-03T12:30:12.868Z,24.33
2022-12-03T12:32:47.968Z,25.15
2022-12-03T12:35:29.734Z,25.65
2022-12-03T12:38:08.899Z,25.13
2022-12-03T12:40:41.279Z,25.62
2022-12-03T12:43:17.763Z,25.68
2022-12-03T12:45:49.681Z,25.59
2022-12-03T12:48:27.878Z,25.52
2022-12-03T12:51:18.946Z,25.96
2022-12-03T12:53:46.055Z,26.70
2022-12-03T12:56:24.346Z,26.20
2022-12-03T12:58:51.568Z,26.09
2022-12-03T13:01:25.949Z,25.45
2022-12-03T13:03:53.438Z,24.65
2022-12-03T13:06:27.458Z,24.37
2022-12-03T13:08:55.063Z,24.58
2022-12-03T13:11:24.793Z,24.83
2022-12-03T13:13:52.536Z,24.73
2022-12-03T13:16:30.706Z,23.57
2022-12-03T13:18:59.376Z,21.65
2022-12-03T13:21:46.648Z,19.37
2022-12-03T13:24:39.802Z,18.00
2022-12-03T13:27:18.548Z,17.01
2022-12-03T13:29:47.916Z,16.55
2022-12-03T13:32:20.714Z,16.17
2022-12-03T13:34:50.627Z,15.69
2022-12-03T13:37:28.376Z,15.28
2022-12-03T13:40:06.153Z,15.09
2022-12-03T13:42:38.773Z,14.87
2022-12-03T13:45:24.959Z,14.67
2022-12-03T13:47:59.345Z,14.69
2022-12-03T13:50:26.327Z,14.65
2022-12-03T13:52:53.205Z,14.62
2022-12-03T13:55:27.590Z,14.56
2022-12-03T13:57:55.149Z,14.48
2022-12-03T14:00:22.332Z,14.49
2022-12-03T14:02:49.343Z,14.45
2022-12-03T14:05:16.844Z,14.34
2022-12-03T14:07:43.600Z,14.46
2022-12-03T14:10:12.302Z,14.53
2022-12-03T14:12:39.123Z,14.54
2022-12-03T14:15:06.864Z,14.53
2022-12-03T14:17:33.645Z,14.46
2022-12-03T14:20:01.519Z,14.47
2022-12-03T14:22:28.688Z,14.48
2022-12-03T14:24:55.815Z,14.52
2022-12-03T14:27:24.758Z,14.58
2022-12-03T14:29:52.239Z,14.53
2022-12-03T14:32:19.428Z,14.44
2022-12-03T14:34:46.147Z,14.46
2022-12-03T14:37:12.938Z,14.50
2022-12-03T14:39:39.980Z,14.49
2022-12-03T14:42:16.707Z,14.46
2022-12-03T14:44:49.051Z,14.45
2022-12-03T14:47:18.735Z,14.53
2022-12-03T14:49:46.192Z,14.56
2022-12-03T14:52:13.107Z,14.61
2022-12-03T14:54:42.824Z,14.56
2022-12-03T14:57:14.374Z,14.61
2022-12-03T14:59:42.688Z,14.64
2022-12-03T15:02:11.159Z,14.67
2022-12-03T15:04:38.713Z,14.64
2022-12-03T15:07:05.809Z,14.63
2022-12-03T15:09:32.860Z,14.57
2022-12-03T15:12:00.285Z,14.60
2022-12-03T15:14:27.139Z,14.57
2022-12-03T15:16:53.983Z,14.50
2022-12-03T15:19:20.845Z,14.50
2022-12-03T15:21:47.605Z,14.41
2022-12-03T15:24:14.312Z,14.49
2022-12-03T15:26:41.074Z,14.49
2022-12-03T15:29:07.781Z,14.45
2022-12-03T15:31:34.592Z,14.43
2022-12-03T15:34:01.670Z,14.43
2022-12-03T15:36:28.384Z,14.37
2022-12-03T15:38:55.092Z,14.42
2022-12-03T15:41:23.391Z,14.39
2022-12-03T15:43:53.030Z,14.39
2022-12-03T15:46:20.580Z,14.26
2022-12-03T15:48:48.140Z,14.24
2022-12-03T15:51:14.996Z,14.25
2022-12-03T15:53:41.885Z,14.17
2022-12-03T15:56:08.689Z,14.10
2022-12-03T15:58:35.409Z,14.08
2022-12-03T16:01:02.414Z,13.90
2022-12-03T16:03:29.285Z,13.97
2022-12-03T16:05:56.197Z,14.02
2022-12-03T16:08:23.173Z,13.99
2022-12-03T16:10:49.871Z,14.01
2022-12-03T16:13:16.636Z,13.98
2022-12-03T16:15:43.713Z,13.93
2022-12-03T16:18:10.505Z,13.94
2022-12-03T16:20:37.261Z,13.90
2022-12-03T16:23:04.231Z,13.86
2022-12-03T16:25:31.087Z,13.86
2022-12-03T16:27:57.897Z,13.85
2022-12-03T16:30:24.968Z,13.80
2022-12-03T16:32:51.756Z,13.75
2022-12-03T16:35:18.591Z,13.72
2022-12-03T16:37:45.494Z,13.66
2022-12-03T16:40:12.479Z,13.58
2022-12-03T16:42:39.219Z,13.60
2022-12-03T16:45:09.901Z,13.56
2022-12-03T16:47:37.032Z,13.49
2022-12-03T16:50:06.670Z,13.48
2022-12-03T16:52:33.721Z,13.40
2022-12-03T16:55:00.460Z,13.34
2022-12-03T16:57:33.127Z,13.33
2022-12-03T17:00:00.859Z,13.27
2022-12-03T17:02:28.017Z,13.24
2022-12-03T17:04:55.219Z,13.22
2022-12-03T17:07:21.991Z,13.16
2022-12-03T17:09:49.361Z,13.12
2022-12-03T17:12:16.129Z,13.00
2022-12-03T17:14:42.873Z,12.93
2022-12-03T17:17:09.710Z,12.94
2022-12-03T17:19:36.422Z,12.86
2022-12-03T17:22:08.283Z,12.87
2022-12-03T17:24:35.132Z,12.79
2022-12-03T17:27:01.863Z,12.69
2022-12-03T17:29:28.635Z,12.55
2022-12-03T17:31:55.570Z,12.60
2022-12-03T17:34:22.323Z,12.54
2022-12-03T17:36:49.045Z,12.25
2022-12-03T17:39:15.860Z,12.33
2022-12-03T17:41:42.620Z,12.30
2022-12-03T17:44:12.060Z,12.20
2022-12-03T17:46:40.902Z,12.13
2022-12-03T17:49:07.720Z,12.07
2022-12-03T17:51:34.511Z,12.06
2022-12-03T17:54:01.311Z,11.99
2022-12-03T17:56:28.037Z,11.95
2022-12-03T17:58:54.796Z,11.84
2022-12-03T18:01:21.638Z,11.76
2022-12-03T18:03:48.536Z,11.78
2022-12-03T18:06:15.354Z,11.72
2022-12-03T18:08:42.216Z,11.64
2022-12-03T18:11:08.970Z,11.59
2022-12-03T18:13:35.764Z,11.42
2022-12-03T18:16:02.593Z,11.38
2022-12-03T18:18:29.334Z,11.30
2022-12-03T18:20:56.257Z,11.29
2022-12-03T18:23:23.074Z,11.25
2022-12-03T18:25:49.859Z,11.19
2022-12-03T18:28:16.683Z,11.10
2022-12-03T18:30:49.088Z,10.87
2022-12-03T18:33:19.022Z,10.90
2022-12-03T18:35:45.847Z,10.79
2022-12-03T18:38:14.514Z,10.61
2022-12-03T18:40:44.408Z,10.56
2022-12-03T18:43:16.551Z,10.41
2022-12-03T18:45:43.467Z,10.29
2022-12-03T18:48:15.426Z,10.25
2022-12-03T18:50:43.381Z,10.16
2022-12-03T18:53:12.667Z,10.08
2022-12-03T18:55:40.706Z,9.94
2022-12-03T18:58:07.492Z,9.92
2022-12-03T19:00:35.891Z,9.87
2022-12-03T19:03:04.376Z,9.87
2022-12-03T19:05:34.308Z,9.88
2022-12-03T19:08:02.066Z,9.81
2022-12-03T19:10:28.978Z,9.62
2022-12-03T19:12:55.724Z,9.81
2022-12-03T19:15:23.094Z,9.64
2022-12-03T19:17:50.510Z,9.76
2022-12-03T19:20:17.297Z,9.73
2022-12-03T19:22:47.028Z,9.76
2022-12-03T19:25:13.946Z,9.68
2022-12-03T19:27:40.726Z,9.59
2022-12-03T19:30:08.092Z,9.67
2022-12-03T19:32:35.412Z,9.69
2022-12-03T19:35:05.361Z,9.67
2022-12-03T19:37:34.815Z,9.64
2022-12-03T19:40:01.622Z,9.61
2022-12-03T19:42:28.366Z,9.60
2022-12-03T19:44:55.217Z,9.60
2022-12-03T19:47:24.767Z,9.59
2022-12-03T19:49:53.444Z,9.49
2022-12-03T19:52:20.609Z,9.49
2022-12-03T19:54:47.386Z,9.51
2022-12-03T19:57:18.061Z,9.55
2022-12-03T19:59:48.396Z,9.50
2022-12-03T20:02:15.237Z,9.49
2022-12-03T20:04:42.018Z,9.47
2022-12-03T20:07:08.907Z,9.49
2022-12-03T20:09:35.658Z,9.49
2022-12-03T20:12:02.409Z,9.45
2022-12-03T20:14:29.638Z,9.39
2022-12-03T20:16:56.703Z,9.34
2022-12-03T20:19:23.502Z,9.24
2022-12-03T20:21:50.301Z,9.30
2022-12-03T20:24:17.868Z,9.32
2022-12-03T20:26:44.845Z,9.31
2022-12-03T20:29:11.885Z,9.30
2022-12-03T20:31:38.722Z,9.29
2022-12-03T20:34:05.569Z,9.29
2022-12-03T20:36:33.220Z,9.19
2022-12-03T20:39:07.087Z,9.13
2022-12-03T20:41:37.262Z,9.06
2022-12-03T20:44:06.157Z,8.76
2022-12-03T20:46:33.084Z,8.94
2022-12-03T20:49:00.275Z,8.97
2022-12-03T20:51:29.861Z,9.07
2022-12-03T20:53:57.670Z,9.03
2022-12-03T20:56:27.628Z,8.97
2022-12-03T20:58:54.697Z,8.94
2022-12-03T21:01:23.909Z,8.83
2022-12-03T21:03:52.606Z,8.86
2022-12-03T21:06:20.833Z,8.74
2022-12-03T21:08:48.906Z,8.67
2022-12-03T21:11:18.563Z,8.65
2022-12-03T21:13:46.080Z,8.62
2022-12-03T21:16:16.063Z,8.64
2022-12-03T21:18:43.156Z,8.61
2022-12-03T21:21:12.960Z,8.62
2022-12-03T21:23:39.809Z,8.61
2022-12-03T21:26:20.764Z,8.57
2022-12-03T21:28:51.101Z,8.59
2022-12-03T21:31:19.367Z,8.38
2022-12-03T21:33:46.352Z,8.49
2022-12-03T21:36:16.024Z,8.74
2022-12-03T21:38:44.484Z,8.78
2022-12-03T21:41:12.514Z,8.80
2022-12-03T21:43:39.226Z,8.74
2022-12-03T21:47:12.204Z,8.67
2022-12-03T21:49:00.127Z,8.51
2022-12-03T21:51:26.956Z,8.44
2022-12-03T21:53:53.668Z,8.35
2022-12-03T21:56:20.822Z,8.32
2022-12-03T21:58:47.799Z,8.32
2022-12-03T22:01:20.444Z,8.29
2022-12-03T22:03:47.568Z,8.26
2022-12-03T22:06:14.920Z,8.22
2022-12-03T22:08:41.829Z,8.20
2022-12-03T22:11:10.964Z,8.16
2022-12-03T22:13:39.103Z,8.12
2022-12-03T22:16:12.752Z,8.08
2022-12-03T22:18:40.187Z,8.12
2022-12-03T22:21:09.964Z,8.18
2022-12-03T22:23:37.461Z,8.19
2022-12-03T22:26:15.943Z,8.15
2022-12-03T22:28:44.582Z,8.30
2022-12-03T22:31:12.051Z,8.31
2022-12-03T22:33:39.331Z,8.34
2022-12-03T22:36:09.713Z,8.37
2022-12-03T22:38:39.372Z,8.28
2022-12-03T22:41:12.086Z,8.25
2022-12-03T22:43:39.047Z,8.25
2022-12-03T22:46:08.991Z,8.24
2022-12-03T22:48:36.731Z,8.18
2022-12-03T22:51:04.068Z,8.16
2022-12-03T22:53:30.815Z,8.18
2022-12-03T22:56:00.022Z,8.21
2022-12-03T22:58:27.976Z,8.21
2022-12-03T23:01:02.377Z,8.13
2022-12-03T23:03:30.185Z,8.06
2022-12-03T23:05:56.995Z,8.08
2022-12-03T23:08:23.932Z,7.92
2022-12-03T23:10:52.681Z,7.80
2022-12-03T23:13:20.213Z,7.70
2022-12-03T23:15:51.734Z,7.69
2022-12-03T23:18:19.810Z,7.69
2022-12-03T23:20:49.865Z,7.56
2022-12-03T23:23:19.384Z,7.59
2022-12-03T23:26:00.392Z,7.56
2022-12-03T23:28:29.301Z,7.53
2022-12-03T23:30:56.546Z,7.60
2022-12-03T23:33:23.754Z,7.67
2022-12-03T23:35:51.180Z,7.63
2022-12-03T23:38:18.543Z,7.66
2022-12-03T23:40:48.189Z,7.66
2022-12-03T23:43:15.836Z,7.67
2022-12-03T23:45:42.787Z,7.65
2022-12-03T23:48:09.604Z,7.62
2022-12-03T23:50:40.129Z,7.65
2022-12-03T23:53:07.134Z,7.62
2022-12-03T23:55:38.452Z,7.61
2022-12-03T23:58:05.154Z,7.55
